createdAt,value
2019-04-26T00:01:42.231Z,65.22
2019-04-26T00:04:16.239Z,65.43
2019-04-26T00:06:45.070Z,65.41
2019-04-26T00:09:31.968Z,66.12
2019-04-26T00:12:18.590Z,66.32
2019-04-26T00:15:08.368Z,65.66
2019-04-26T00:17:46.800Z,65.35
2019-04-26T00:20:17.663Z,65.09
2019-04-26T00:22:46.628Z,65.29
2019-04-26T00:25:16.557Z,65.66
2019-04-26T00:27:47.236Z,66.15
2019-04-26T00:30:16.995Z,66.41
2019-04-26T00:32:46.519Z,66.53
2019-04-26T00:35:15.895Z,67.49
2019-04-26T00:37:44.835Z,67.69
2019-04-26T00:40:18.282Z,67.81
2019-04-26T00:42:46.868Z,68.18
2019-04-26T00:45:16.660Z,68.32
2019-04-26T00:47:48.134Z,68.92
2019-04-26T00:50:17.330Z,69.64
2019-04-26T00:52:47.576Z,70.67
2019-04-26T00:55:16.257Z,71.69
2019-04-26T00:57:46.902Z,70.46
2019-04-26T01:00:18.104Z,70.29
2019-04-26T01:02:51.069Z,69.94
2019-04-26T01:05:25.461Z,70.27
2019-04-26T01:07:55.945Z,70.27
2019-04-26T01:10:25.873Z,70.05
2019-04-26T01:12:54.924Z,69.66
2019-04-26T01:15:24.892Z,69.56
2019-04-26T01:17:54.539Z,70.35
2019-04-26T01:20:24.607Z,70.15
2019-04-26T01:22:54.100Z,70.56
2019-04-26T01:25:53.509Z,71.92
2019-04-26T01:28:30.249Z,72.39
2019-04-26T01:30:59.532Z,72.39
2019-04-26T01:33:30.211Z,72.59
2019-04-26T01:35:59.077Z,73.87
2019-04-26T01:38:27.835Z,73.40
2019-04-26T01:41:00.022Z,73.59
2019-04-26T01:43:46.127Z,73.27
2019-04-26T01:46:21.715Z,73.20
2019-04-26T01:49:01.701Z,73.11
2019-04-26T01:51:38.461Z,73.01
2019-04-26T01:54:09.651Z,73.40
2019-04-26T01:56:42.131Z,73.17
2019-04-26T01:59:12.009Z,73.29
2019-04-26T02:02:21.339Z,73.35
2019-04-26T02:04:55.677Z,73.43
2019-04-26T02:07:41.779Z,73.46
2019-04-26T02:10:12.438Z,73.74
2019-04-26T02:12:41.060Z,74.01
2019-04-26T02:15:11.627Z,74.10
2019-04-26T02:17:42.418Z,74.32
2019-04-26T02:20:23.220Z,73.99
2019-04-26T02:23:04.502Z,74.26
2019-04-26T02:25:34.600Z,74.72
2019-04-26T02:28:04.406Z,74.18
2019-04-26T02:30:34.647Z,74.52
2019-04-26T02:33:06.716Z,74.95
2019-04-26T02:35:35.889Z,75.77
2019-04-26T02:38:05.533Z,76.22
2019-04-26T02:40:36.841Z,76.10
2019-04-26T02:43:07.799Z,76.14
2019-04-26T02:46:02.981Z,75.58
2019-04-26T02:48:46.246Z,75.59
2019-04-26T02:51:19.030Z,75.95
2019-04-26T02:54:13.657Z,75.78
2019-04-26T02:56:44.223Z,75.86
2019-04-26T02:59:47.547Z,75.43
2019-04-26T03:02:30.154Z,75.42
2019-04-26T03:05:03.998Z,75.18
2019-04-26T03:07:53.882Z,74.83
2019-04-26T03:10:28.219Z,75.66
2019-04-26T03:12:58.423Z,76.34
2019-04-26T03:15:43.528Z,76.76
2019-04-26T03:18:35.615Z,76.25
2019-04-26T03:21:13.093Z,76.56
2019-04-26T03:23:58.209Z,76.84
2019-04-26T03:26:44.909Z,77.67
2019-04-26T03:29:46.078Z,77.32
2019-04-26T03:32:56.001Z,78.00
2019-04-26T03:35:56.903Z,79.01
2019-04-26T03:38:35.732Z,78.62
2019-04-26T03:41:27.159Z,78.53
2019-04-26T03:44:18.090Z,78.12
2019-04-26T03:46:50.877Z,79.39
2019-04-26T03:49:45.756Z,80.11
2019-04-26T03:52:45.428Z,81.17
2019-04-26T03:55:52.971Z,80.58
2019-04-26T03:59:23.395Z,81.37
2019-04-26T04:02:26.597Z,81.58
2019-04-26T04:05:17.785Z,81.69
2019-04-26T04:07:51.317Z,81.99
2019-04-26T04:10:24.662Z,82.06
2019-04-26T04:13:01.087Z,83.51
2019-04-26T04:15:40.400Z,83.74
2019-04-26T04:18:16.350Z,82.95
2019-04-26T04:21:11.679Z,82.67
2019-04-26T04:23:57.176Z,82.41
2019-04-26T04:26:39.079Z,82.01
2019-04-26T04:29:50.597Z,79.35
2019-04-26T04:32:32.303Z,76.71
2019-04-26T04:35:06.562Z,73.63
2019-04-26T04:38:04.244Z,75.06
2019-04-26T04:40:36.351Z,76.20
2019-04-26T04:43:25.284Z,76.20
2019-04-26T04:46:39.724Z,73.72
2019-04-26T04:49:27.156Z,71.54
2019-04-26T04:52:36.889Z,68.97
2019-04-26T04:55:13.548Z,68.08
2019-04-26T04:58:02.554Z,68.15
2019-04-26T05:00:57.314Z,67.57
2019-04-26T05:03:40.979Z,69.06
2019-04-26T05:06:34.361Z,69.85
2019-04-26T05:09:08.294Z,70.03
2019-04-26T05:11:50.051Z,69.87
2019-04-26T05:14:29.891Z,69.95
2019-04-26T05:17:20.291Z,69.70
2019-04-26T05:20:11.341Z,69.60
2019-04-26T05:23:03.755Z,69.52
2019-04-26T05:26:43.622Z,69.98
2019-04-26T05:30:08.060Z,69.91
2019-04-26T05:33:13.154Z,69.85
2019-04-26T05:36:01.558Z,69.41
2019-04-26T05:39:00.377Z,68.04
2019-04-26T05:42:08.140Z,68.77
2019-04-26T05:45:17.181Z,69.13
2019-04-26T05:48:08.459Z,69.64
2019-04-26T05:51:14.244Z,70.62
2019-04-26T05:54:24.916Z,71.39
2019-04-26T05:57:14.124Z,71.51
2019-04-26T06:00:18.106Z,71.07
2019-04-26T06:03:13.919Z,70.88
2019-04-26T06:06:26.296Z,70.47
2019-04-26T06:09:17.229Z,70.13
2019-04-26T06:11:56.620Z,69.12
2019-04-26T06:14:49.143Z,70.10
2019-04-26T06:18:23.675Z,68.93
2019-04-26T06:21:08.468Z,66.77
2019-04-26T06:24:10.178Z,65.87
2019-04-26T06:27:19.288Z,66.65
2019-04-26T06:29:59.624Z,66.04
2019-04-26T06:32:33.370Z,66.55
2019-04-26T06:35:06.859Z,66.89
2019-04-26T06:37:47.599Z,66.91
2019-04-26T06:40:29.084Z,68.66
2019-04-26T06:43:08.035Z,68.83
2019-04-26T06:46:03.270Z,67.89
2019-04-26T06:48:45.420Z,67.87
2019-04-26T06:51:24.234Z,68.31
2019-04-26T06:54:16.124Z,68.80
2019-04-26T06:57:19.221Z,68.16
2019-04-26T07:00:08.749Z,67.23
2019-04-26T07:03:11.931Z,67.36
2019-04-26T07:05:44.825Z,67.12
2019-04-26T07:08:27.271Z,67.63
2019-04-26T07:12:07.905Z,68.15
2019-04-26T07:14:59.476Z,67.83
2019-04-26T07:18:22.150Z,68.12
2019-04-26T07:21:09.052Z,67.83
2019-04-26T07:24:19.423Z,68.46
2019-04-26T07:27:21.222Z,69.05
2019-04-26T07:30:14.547Z,69.15
2019-04-26T07:32:59.857Z,68.92
2019-04-26T07:35:37.558Z,68.10
2019-04-26T07:39:10.416Z,68.77
2019-04-26T07:41:56.222Z,68.17
2019-04-26T07:44:56.503Z,67.68
2019-04-26T07:48:18.202Z,67.98
2019-04-26T07:51:23.181Z,68.23
2019-04-26T07:54:01.152Z,67.97
2019-04-26T07:56:49.023Z,68.20
2019-04-26T07:59:40.501Z,67.45
2019-04-26T08:02:56.698Z,67.63
2019-04-26T08:05:40.803Z,68.18
2019-04-26T08:08:10.828Z,68.05
2019-04-26T08:10:39.984Z,68.48
2019-04-26T08:13:11.682Z,68.91
2019-04-26T08:15:58.313Z,68.40
2019-04-26T08:18:37.525Z,67.90
2019-04-26T08:21:20.571Z,67.28
2019-04-26T08:23:57.842Z,67.84
2019-04-26T08:26:26.536Z,67.51
2019-04-26T08:29:00.699Z,67.64
2019-04-26T08:31:28.122Z,67.40
2019-04-26T08:34:01.273Z,66.99
2019-04-26T08:36:34.040Z,67.34
2019-04-26T08:39:06.970Z,66.54
2019-04-26T08:41:39.200Z,67.35
2019-04-26T08:44:22.872Z,67.35
2019-04-26T08:47:19.800Z,67.90
2019-04-26T08:50:13.281Z,67.85
2019-04-26T08:52:40.381Z,67.86
2019-04-26T08:55:09.317Z,67.75
2019-04-26T08:57:40.137Z,68.74
2019-04-26T09:00:12.424Z,69.81
2019-04-26T09:03:10.785Z,69.84
2019-04-26T09:05:40.088Z,69.55
2019-04-26T09:08:12.079Z,70.58
2019-04-26T09:10:43.211Z,70.65
2019-04-26T09:13:13.461Z,70.47
2019-04-26T09:16:05.788Z,69.43
2019-04-26T09:18:43.675Z,70.68
2019-04-26T09:21:16.996Z,69.50
2019-04-26T09:24:08.390Z,69.16
2019-04-26T09:27:02.422Z,69.81
2019-04-26T09:29:36.082Z,71.58
2019-04-26T09:32:32.720Z,70.86
2019-04-26T09:35:01.595Z,72.20
2019-04-26T09:37:30.869Z,69.94
2019-04-26T09:40:09.619Z,69.18
2019-04-26T09:42:41.057Z,68.34
2019-04-26T09:45:27.881Z,67.99
2019-04-26T09:48:22.295Z,67.01
2019-04-26T09:50:55.263Z,66.79
2019-04-26T09:53:27.763Z,65.12
2019-04-26T09:55:56.344Z,65.77
2019-04-26T09:58:26.906Z,65.60
2019-04-26T10:00:56.731Z,65.20
2019-04-26T10:03:28.684Z,65.07
2019-04-26T10:05:57.627Z,65.08
2019-04-26T10:08:29.145Z,63.75
2019-04-26T10:10:59.091Z,63.99
2019-04-26T10:13:45.007Z,64.10
2019-04-26T10:16:33.483Z,64.16
2019-04-26T10:19:09.866Z,63.71
2019-04-26T10:21:39.048Z,63.55
2019-04-26T10:24:09.619Z,63.42
2019-04-26T10:26:39.427Z,62.86
2019-04-26T10:29:13.010Z,64.08
2019-04-26T10:31:43.108Z,64.63
2019-04-26T10:34:12.916Z,65.02
2019-04-26T10:36:43.703Z,64.59
2019-04-26T10:39:12.834Z,64.29
2019-04-26T10:41:41.554Z,64.99
2019-04-26T10:44:11.612Z,64.31
2019-04-26T10:46:54.870Z,63.65
2019-04-26T10:49:43.140Z,64.23
2019-04-26T10:52:28.496Z,64.18
2019-04-26T10:55:17.439Z,63.86
2019-04-26T10:57:46.791Z,64.36
2019-04-26T11:00:24.299Z,64.26
2019-04-26T11:02:52.858Z,64.32
2019-04-26T11:05:23.446Z,63.95
2019-04-26T11:07:53.420Z,64.00
2019-04-26T11:10:24.473Z,63.61
2019-04-26T11:12:53.240Z,63.48
2019-04-26T11:15:23.239Z,64.04
2019-04-26T11:17:51.785Z,64.37
2019-04-26T11:20:20.590Z,64.76
2019-04-26T11:22:50.660Z,65.32
2019-04-26T11:25:19.525Z,65.41
2019-04-26T11:27:48.681Z,65.71
2019-04-26T11:30:20.892Z,66.85
2019-04-26T11:32:47.969Z,68.18
2019-04-26T11:35:16.887Z,67.88
2019-04-26T11:37:50.769Z,69.49
2019-04-26T11:40:20.910Z,70.78
2019-04-26T11:42:49.632Z,71.04
2019-04-26T11:45:20.157Z,71.52
2019-04-26T11:47:56.216Z,71.37
2019-04-26T11:50:20.694Z,71.01
2019-04-26T11:52:49.642Z,72.07
2019-04-26T11:55:20.075Z,72.68
2019-04-26T11:57:50.875Z,72.67
2019-04-26T12:00:34.095Z,71.50
2019-04-26T12:03:05.011Z,72.26
2019-04-26T12:05:40.684Z,72.38
2019-04-26T12:08:12.455Z,73.69
2019-04-26T12:10:44.342Z,74.00
2019-04-26T12:13:11.333Z,73.40
2019-04-26T12:15:43.766Z,73.75
2019-04-26T12:18:11.649Z,73.12
2019-04-26T12:20:40.652Z,72.12
2019-04-26T12:23:13.711Z,72.49
2019-04-26T12:25:43.652Z,73.62
2019-04-26T12:28:11.454Z,74.55
2019-04-26T12:30:42.110Z,76.19
2019-04-26T12:33:10.665Z,76.85
2019-04-26T12:35:39.251Z,75.95
2019-04-26T12:38:09.185Z,77.61
2019-04-26T12:40:37.727Z,77.21
2019-04-26T12:43:08.600Z,77.28
2019-04-26T12:45:47.351Z,77.96
2019-04-26T12:48:17.634Z,77.85
2019-04-26T12:50:48.167Z,78.55
2019-04-26T12:53:18.122Z,77.74
2019-04-26T12:55:49.155Z,79.30
2019-04-26T12:58:17.560Z,79.18
2019-04-26T13:00:53.694Z,78.81
2019-04-26T13:03:20.639Z,80.69
2019-04-26T13:05:49.781Z,80.27
2019-04-26T13:08:18.980Z,80.29
2019-04-26T13:11:14.976Z,78.15
2019-04-26T13:13:46.689Z,79.05
2019-04-26T13:16:26.361Z,79.84
2019-04-26T13:18:58.261Z,79.94
2019-04-26T13:21:27.138Z,81.19
2019-04-26T13:23:55.694Z,79.26
2019-04-26T13:26:24.447Z,79.16
2019-04-26T13:28:57.013Z,80.18
2019-04-26T13:31:31.305Z,81.43
2019-04-26T13:33:58.369Z,81.05
2019-04-26T13:36:29.009Z,81.43
2019-04-26T13:38:57.826Z,81.72
2019-04-26T13:41:28.054Z,81.35
2019-04-26T13:43:57.125Z,81.05
2019-04-26T13:46:44.713Z,82.43
2019-04-26T13:49:21.143Z,82.62
2019-04-26T13:51:49.701Z,82.47
2019-04-26T13:54:21.037Z,82.95
2019-04-26T13:56:48.917Z,82.22
2019-04-26T13:59:17.466Z,81.82
2019-04-26T14:01:46.308Z,81.70
2019-04-26T14:04:15.221Z,81.58
2019-04-26T14:06:45.018Z,82.32
2019-04-26T14:09:16.669Z,80.12
2019-04-26T14:11:48.872Z,80.72
2019-04-26T14:14:17.840Z,80.58
2019-04-26T14:16:46.408Z,81.04
2019-04-26T14:19:16.779Z,81.63
2019-04-26T14:21:47.295Z,81.35
2019-04-26T14:24:53.074Z,80.84
2019-04-26T14:27:29.940Z,80.95
2019-04-26T14:30:02.454Z,81.16
2019-04-26T14:32:29.400Z,81.14
2019-04-26T14:35:01.565Z,80.24
2019-04-26T14:37:30.505Z,80.31
2019-04-26T14:40:16.597Z,80.49
2019-04-26T14:42:42.011Z,81.07
2019-04-26T14:45:07.322Z,80.06
2019-04-26T14:47:46.834Z,81.70
2019-04-26T14:50:13.813Z,82.25
2019-04-26T14:52:37.817Z,82.24
2019-04-26T14:55:06.562Z,80.70
2019-04-26T14:57:35.652Z,82.08
2019-04-26T15:00:05.034Z,81.88
2019-04-26T15:02:55.867Z,81.93
2019-04-26T15:05:50.570Z,82.59
2019-04-26T15:08:25.306Z,82.10
2019-04-26T15:11:00.969Z,82.59
2019-04-26T15:13:26.033Z,82.71
2019-04-26T15:15:54.619Z,82.00
2019-04-26T15:18:25.037Z,82.36
2019-04-26T15:20:57.376Z,83.49
2019-04-26T15:23:28.580Z,84.73
2019-04-26T15:25:59.396Z,83.49
2019-04-26T15:28:29.349Z,83.33
2019-04-26T15:30:58.309Z,82.95
2019-04-26T15:33:26.867Z,81.71
2019-04-26T15:35:56.160Z,81.34
2019-04-26T15:38:26.093Z,82.14
2019-04-26T15:41:11.298Z,82.67
2019-04-26T15:43:42.856Z,82.33
2019-04-26T15:46:24.293Z,82.40
2019-04-26T15:49:18.749Z,82.64
2019-04-26T15:51:47.685Z,82.58
2019-04-26T15:54:17.809Z,83.13
2019-04-26T15:56:49.427Z,82.39
2019-04-26T15:59:18.386Z,82.41
2019-04-26T16:01:49.368Z,83.91
2019-04-26T16:04:18.510Z,83.32
2019-04-26T16:06:52.194Z,83.49
2019-04-26T16:09:22.989Z,84.14
2019-04-26T16:11:55.285Z,83.17
2019-04-26T16:14:24.894Z,81.95
2019-04-26T16:16:58.333Z,82.38
2019-04-26T16:19:27.839Z,83.20
2019-04-26T16:21:58.140Z,82.71
2019-04-26T16:24:27.909Z,82.24
2019-04-26T16:27:08.905Z,82.56
2019-04-26T16:30:03.757Z,84.18
2019-04-26T16:32:58.859Z,84.14
2019-04-26T16:35:29.917Z,83.54
2019-04-26T16:38:22.892Z,83.36
2019-04-26T16:40:53.536Z,83.29
2019-04-26T16:43:37.038Z,83.64
2019-04-26T16:46:02.137Z,83.98
2019-04-26T16:48:31.257Z,83.67
2019-04-26T16:51:08.554Z,83.51
2019-04-26T16:53:46.389Z,83.25
2019-04-26T16:56:05.492Z,83.91
2019-04-26T16:58:38.268Z,84.17
2019-04-26T17:01:10.091Z,83.22
2019-04-26T17:03:43.955Z,83.23
2019-04-26T17:06:11.449Z,84.71
2019-04-26T17:08:43.341Z,85.00
2019-04-26T17:11:12.418Z,84.40
2019-04-26T17:13:50.638Z,84.58
2019-04-26T17:16:19.935Z,84.50
2019-04-26T17:18:48.847Z,84.72
2019-04-26T17:21:22.336Z,83.79
2019-04-26T17:24:24.848Z,83.88
2019-04-26T17:26:59.799Z,84.22
2019-04-26T17:29:28.753Z,84.77
2019-04-26T17:32:00.475Z,85.04
2019-04-26T17:34:30.267Z,83.91
2019-04-26T17:37:09.388Z,83.61
2019-04-26T17:39:34.926Z,83.71
2019-04-26T17:42:05.651Z,84.70
2019-04-26T17:44:34.637Z,85.23
2019-04-26T17:47:08.301Z,86.67
2019-04-26T17:49:39.041Z,86.09
2019-04-26T17:52:06.900Z,86.37
2019-04-26T17:54:46.287Z,85.81
2019-04-26T17:57:08.885Z,85.29
2019-04-26T17:59:45.224Z,85.86
2019-04-26T18:02:20.620Z,86.51
2019-04-26T18:04:43.103Z,86.83
2019-04-26T18:07:34.723Z,87.47
2019-04-26T18:09:46.752Z,87.45
2019-04-26T18:12:17.752Z,86.92
2019-04-26T18:14:46.682Z,86.86
2019-04-26T18:17:27.495Z,87.13
2019-04-26T18:20:21.028Z,86.85
2019-04-26T18:22:54.764Z,87.55
2019-04-26T18:25:23.455Z,87.42
2019-04-26T18:27:53.496Z,87.11
2019-04-26T18:30:24.688Z,87.52
2019-04-26T18:32:54.932Z,87.50
2019-04-26T18:35:25.914Z,87.73
2019-04-26T18:37:54.527Z,87.88
2019-04-26T18:40:23.466Z,88.04
2019-04-26T18:42:55.109Z,87.72
2019-04-26T18:45:29.674Z,87.46
2019-04-26T18:48:01.396Z,86.49
2019-04-26T18:50:28.417Z,86.59
2019-04-26T18:53:19.789Z,87.05
2019-04-26T18:55:48.942Z,87.31
2019-04-26T18:58:23.606Z,87.75
2019-04-26T19:00:57.346Z,88.01
2019-04-26T19:03:29.971Z,88.48
2019-04-26T19:05:58.510Z,88.28
2019-04-26T19:08:28.992Z,88.13
2019-04-26T19:11:03.353Z,88.30
2019-04-26T19:13:46.237Z,88.44
2019-04-26T19:16:34.394Z,88.57
2019-04-26T19:19:15.343Z,88.90
2019-04-26T19:21:47.416Z,89.09
2019-04-26T19:24:20.961Z,89.20
2019-04-26T19:26:52.349Z,88.96
2019-04-26T19:29:27.064Z,88.74
2019-04-26T19:31:52.205Z,88.67
2019-04-26T19:34:30.142Z,88.79
2019-04-26T19:36:59.771Z,89.17
2019-04-26T19:39:33.296Z,89.08
2019-04-26T19:42:02.506Z,89.61
2019-04-26T19:44:31.719Z,88.87
2019-04-26T19:47:27.135Z,89.02
2019-04-26T19:50:11.457Z,89.25
2019-04-26T19:52:57.866Z,89.24
2019-04-26T19:55:48.865Z,89.29
2019-04-26T19:58:20.601Z,89.24
2019-04-26T20:00:52.381Z,88.96
2019-04-26T20:03:24.714Z,89.75
2019-04-26T20:05:53.651Z,89.55
2019-04-26T20:08:23.656Z,89.54
2019-04-26T20:10:52.656Z,89.91
2019-04-26T20:13:22.034Z,89.54
2019-04-26T20:15:51.431Z,89.45
2019-04-26T20:18:22.462Z,89.10
2019-04-26T20:20:52.138Z,88.81
2019-04-26T20:23:22.851Z,88.80
2019-04-26T20:25:53.069Z,88.76
2019-04-26T20:28:22.778Z,88.97
2019-04-26T20:31:16.992Z,89.18
2019-04-26T20:33:47.760Z,89.22
2019-04-26T20:36:16.337Z,89.39
2019-04-26T20:38:47.423Z,89.51
2019-04-26T20:41:16.950Z,89.41
2019-04-26T20:43:56.560Z,89.63
2019-04-26T20:46:18.752Z,89.44
2019-04-26T20:48:52.012Z,89.24
2019-04-26T20:51:22.461Z,89.44
2019-04-26T20:53:51.465Z,89.83
2019-04-26T20:56:25.929Z,90.15
2019-04-26T20:58:57.447Z,90.17
2019-04-26T21:01:27.164Z,90.29
2019-04-26T21:03:59.819Z,90.73
2019-04-26T21:06:29.231Z,90.66
2019-04-26T21:09:06.029Z,90.45
2019-04-26T21:11:37.255Z,90.22
2019-04-26T21:14:07.696Z,90.29
2019-04-26T21:16:37.213Z,90.38
2019-04-26T21:19:06.277Z,90.30
2019-04-26T21:21:36.988Z,90.07
2019-04-26T21:24:06.268Z,90.02
2019-04-26T21:27:01.652Z,90.10
2019-04-26T21:29:52.451Z,90.23
2019-04-26T21:32:35.469Z,89.78
2019-04-26T21:35:09.212Z,89.85
2019-04-26T21:37:43.137Z,89.79
2019-04-26T21:40:23.255Z,90.40
2019-04-26T21:43:00.484Z,90.49
2019-04-26T21:45:33.888Z,90.34
2019-04-26T21:48:06.819Z,90.61
2019-04-26T21:50:38.675Z,90.44
2019-04-26T21:53:07.032Z,90.06
2019-04-26T21:55:38.709Z,89.96
2019-04-26T21:58:08.285Z,90.56
2019-04-26T22:00:53.887Z,90.71
2019-04-26T22:03:24.647Z,90.90
2019-04-26T22:05:56.633Z,90.75
2019-04-26T22:08:33.001Z,90.16
2019-04-26T22:11:03.615Z,90.67
2019-04-26T22:13:49.683Z,89.99
2019-04-26T22:16:34.226Z,90.75
2019-04-26T22:19:18.198Z,91.14
2019-04-26T22:22:05.787Z,90.69
2019-04-26T22:24:36.153Z,90.44
2019-04-26T22:27:04.693Z,91.50
2019-04-26T22:29:35.343Z,90.29
2019-04-26T22:32:07.203Z,90.34
2019-04-26T22:34:37.333Z,90.27
2019-04-26T22:37:11.324Z,90.59
2019-04-26T22:39:39.829Z,90.44
2019-04-26T22:42:10.088Z,90.87
2019-04-26T22:44:45.604Z,91.03
2019-04-26T22:47:24.117Z,90.39
2019-04-26T22:49:57.469Z,90.56
2019-04-26T22:52:27.439Z,90.30
2019-04-26T22:55:01.577Z,91.17
2019-04-26T22:57:33.381Z,91.11
2019-04-26T23:00:01.994Z,90.42
2019-04-26T23:02:31.116Z,90.26
2019-04-26T23:05:00.614Z,90.44
2019-04-26T23:07:30.345Z,91.17
2019-04-26T23:09:59.261Z,91.42
2019-04-26T23:12:35.437Z,91.47
2019-04-26T23:15:30.191Z,91.39
2019-04-26T23:18:13.757Z,91.16
2019-04-26T23:20:58.134Z,91.01
2019-04-26T23:23:26.906Z,91.26
2019-04-26T23:26:02.373Z,91.25
2019-04-26T23:28:36.826Z,91.62
2019-04-26T23:31:08.170Z,91.79
2019-04-26T23:33:36.694Z,91.95
2019-04-26T23:36:08.039Z,91.44
2019-04-26T23:38:38.165Z,91.06
2019-04-26T23:41:07.521Z,91.22
2019-04-26T23:43:36.191Z,91.39
2019-04-26T23:46:05.041Z,91.41
2019-04-26T23:48:35.903Z,91.73
2019-04-26T23:51:08.197Z,92.04
2019-04-26T23:53:35.940Z,91.77
2019-04-26T23:56:04.869Z,92.11
2019-04-26T23:58:40.235Z,91.70
